Time;durP1;ratioP1;P1;durP2;ratioP2;P2;SDS_P1;SDS_P2;PMS_P1;PMS_P2;Temp;Humidity;BMP_temperature;BMP_pressure;BME280_temperature;BME280_humidity;BME280_pressure;Samples;Min_cycle;Max_cycle;Signal;HPM_P1;HPM_P2
2022/12/15 00:39:39;;;;;;;26.87;15.40;;;-4.90;99.90;;;;;;5047134;28;20053;-64
2022/12/15 00:42:05;;;;;;;29.30;16.23;;;-4.90;99.90;;;;;;5050745;28;20037;-64
2022/12/15 00:44:31;;;;;;;25.93;15.43;;;-5.00;99.90;;;;;;5050601;28;20037;-64
2022/12/15 00:46:57;;;;;;;30.03;16.40;;;-5.00;99.90;;;;;;5044336;28;20533;-64
2022/12/15 01:22:28;;;;;;;32.27;15.97;;;-5.20;99.90;;;;;;5051108;28;20049;-74
2022/12/15 01:24:54;;;;;;;29.03;15.57;;;-5.20;99.90;;;;;;5051351;28;20041;-75
2022/12/15 01:27:19;;;;;;;34.70;15.50;;;-5.30;99.90;;;;;;5050787;28;20068;-74
2022/12/15 01:29:45;;;;;;;29.70;15.80;;;-5.30;99.90;;;;;;5049004;28;20040;-74
2022/12/15 01:32:12;;;;;;;28.60;15.77;;;-5.30;99.90;;;;;;5050332;28;20138;-74
2022/12/15 01:34:37;;;;;;;28.63;15.40;;;-5.30;99.90;;;;;;5050111;28;20069;-74
2022/12/15 01:37:03;;;;;;;28.63;15.07;;;-5.30;99.90;;;;;;5051373;28;20073;-74
2022/12/15 01:40:43;;;;;;;29.43;15.70;;;-5.20;99.90;;;;;;5051785;28;20112;-74
2022/12/15 01:42:14;;;;;;;30.97;15.63;;;-5.20;99.90;;;;;;5049001;28;20072;-74
2022/12/15 01:44:40;;;;;;;30.30;15.93;;;-5.20;99.90;;;;;;5041129;28;20487;-74
2022/12/15 01:47:10;;;;;;;30.87;15.20;;;-5.20;99.90;;;;;;5050972;28;20045;-74
2022/12/15 01:49:37;;;;;;;25.95;15.57;;;-5.30;99.90;;;;;;5050021;28;20037;-74
2022/12/15 01:52:05;;;;;;;25.57;15.47;;;-5.20;99.90;;;;;;5046401;28;20068;-74
2022/12/15 01:54:57;;;;;;;30.40;15.40;;;-5.20;99.90;;;;;;5050468;28;20513;-74
2022/12/15 01:57:27;;;;;;;24.13;14.10;;;-5.20;99.90;;;;;;5053096;28;20049;-74
2022/12/15 01:59:57;;;;;;;30.08;15.85;;;-5.30;99.90;;;;;;5036608;28;20075;-74
2022/12/15 02:02:26;;;;;;;27.67;14.90;;;-5.30;99.90;;;;;;5045791;28;20045;-74
2022/12/15 02:04:55;;;;;;;26.63;14.53;;;-5.30;99.90;;;;;;5051793;28;20083;-74
2022/12/15 02:07:21;;;;;;;28.13;15.10;;;-5.30;99.90;;;;;;5053437;28;20082;-74
2022/12/15 02:09:49;;;;;;;27.90;14.10;;;-5.20;99.90;;;;;;5051845;28;20131;-74
2022/12/15 02:12:24;;;;;;;28.67;15.17;;;-5.20;99.90;;;;;;5047751;28;20293;-74
2022/12/15 02:15:01;;;;;;;28.40;15.13;;;-5.20;99.90;;;;;;5049817;28;20052;-74
2022/12/15 02:17:36;;;;;;;27.00;14.67;;;-5.20;99.90;;;;;;5051959;28;20037;-73
2022/12/15 02:20:20;;;;;;;31.97;15.93;;;-5.20;99.90;;;;;;5053562;28;20048;-74
2022/12/15 02:23:25;;;;;;;26.80;15.43;;;-5.10;99.90;;;;;;5043286;28;20143;-74
2022/12/15 02:26:28;;;;;;;28.00;15.10;;;-5.10;99.90;;;;;;5047723;28;20044;-75
2022/12/15 02:29:08;;;;;;;28.03;14.97;;;-5.10;99.90;;;;;;5042145;28;20045;-74
2022/12/15 02:31:51;;;;;;;30.83;15.90;;;-5.10;99.90;;;;;;5045374;28;20482;-75
2022/12/15 02:34:25;;;;;;;27.50;14.57;;;-5.10;99.90;;;;;;5049432;28;20029;-74
2022/12/15 02:36:57;;;;;;;24.17;14.17;;;-5.00;99.90;;;;;;5053925;28;20044;-74
2022/12/15 02:39:23;;;;;;;28.83;14.80;;;-5.00;99.90;;;;;;5048296;28;20051;-74
2022/12/15 02:41:50;;;;;;;27.20;15.13;;;-5.00;99.90;;;;;;5047154;28;20120;-75
2022/12/15 02:44:16;;;;;;;26.00;14.00;;;-5.00;99.90;;;;;;5050808;28;20033;-74
2022/12/15 02:46:54;;;;;;;25.40;14.17;;;-5.00;99.90;;;;;;5051526;28;20449;-74
2022/12/15 02:49:44;;;;;;;30.37;14.63;;;-5.00;99.90;;;;;;5047574;28;20120;-75
2022/12/15 02:52:21;;;;;;;22.83;13.37;;;-5.00;99.90;;;;;;5033549;28;20483;-75
2022/12/15 02:55:14;;;;;;;24.23;14.10;;;-5.00;99.90;;;;;;5050686;28;20663;-74
2022/12/15 02:57:52;;;;;;;21.97;13.67;;;-5.00;99.90;;;;;;5041214;28;20033;-74
2022/12/15 03:00:18;;;;;;;23.10;13.77;;;-5.10;99.90;;;;;;5043597;28;20124;-74
2022/12/15 03:02:48;;;;;;;23.70;13.63;;;-5.10;99.90;;;;;;5050234;28;20029;-75
2022/12/15 03:05:15;;;;;;;26.73;14.87;;;-5.10;99.90;;;;;;5051836;28;20130;-74
2022/12/15 03:07:41;;;;;;;26.23;13.70;;;-5.10;99.90;;;;;;5048874;28;20040;-73
2022/12/15 03:10:09;;;;;;;24.43;14.47;;;-5.10;99.90;;;;;;5035484;28;20171;-75
2022/12/15 03:12:34;;;;;;;24.07;13.83;;;-5.10;99.90;;;;;;5043532;28;20044;-74
2022/12/15 03:15:00;;;;;;;27.37;14.37;;;-5.10;99.90;;;;;;5049256;28;20032;-75
2022/12/15 03:17:25;;;;;;;24.77;13.73;;;-5.10;99.90;;;;;;5044566;28;20394;-74
2022/12/15 03:19:51;;;;;;;27.67;15.07;;;-5.10;99.90;;;;;;5053146;28;20037;-74
2022/12/15 03:22:17;;;;;;;26.20;14.40;;;-5.00;99.90;;;;;;5050973;28;20040;-75
2022/12/15 03:24:42;;;;;;;24.40;14.77;;;-5.00;99.90;;;;;;5050117;28;20059;-75
2022/12/15 03:27:08;;;;;;;26.27;14.40;;;-4.90;99.90;;;;;;5049774;28;20043;-75
2022/12/15 03:29:34;;;;;;;28.23;14.93;;;-4.90;99.90;;;;;;5052462;28;20037;-75
2022/12/15 03:31:59;;;;;;;27.43;15.50;;;-4.80;99.90;;;;;;5051949;28;20041;-74
2022/12/15 03:34:25;;;;;;;26.93;14.70;;;-4.80;99.90;;;;;;5049097;28;20041;-75
2022/12/15 03:36:50;;;;;;;26.93;14.13;;;-4.80;99.90;;;;;;5051673;28;20033;-75
2022/12/15 03:39:16;;;;;;;24.70;14.40;;;-4.80;99.90;;;;;;5052007;28;20506;-74
2022/12/15 03:41:42;;;;;;;24.47;13.60;;;-4.70;99.90;;;;;;5050619;28;20040;-75
2022/12/15 03:44:07;;;;;;;28.00;15.10;;;-4.70;99.90;;;;;;5049380;28;20051;-75
2022/12/15 03:46:33;;;;;;;25.73;14.40;;;-4.60;99.90;;;;;;5053112;28;20044;-75
2022/12/15 03:48:59;;;;;;;27.53;14.70;;;-4.60;99.90;;;;;;5053872;28;20122;-75
2022/12/15 03:51:24;;;;;;;24.00;14.20;;;-4.60;99.90;;;;;;5055208;28;20498;-75
2022/12/15 03:53:50;;;;;;;29.90;15.20;;;-4.60;99.90;;;;;;5050963;28;20043;-75
2022/12/15 03:56:16;;;;;;;26.50;14.20;;;-4.60;99.90;;;;;;5048685;28;20033;-75
2022/12/15 03:58:42;;;;;;;26.37;14.77;;;-4.60;99.90;;;;;;5042178;28;20044;-74
2022/12/15 04:01:10;;;;;;;24.07;14.00;;;-4.60;99.90;;;;;;5049110;28;20037;-75
2022/12/15 04:03:36;;;;;;;23.97;13.37;;;-4.60;99.90;;;;;;5049991;28;20041;-75
2022/12/15 04:06:01;;;;;;;25.17;13.73;;;-4.60;99.90;;;;;;5050632;28;20037;-75
2022/12/15 04:08:27;;;;;;;24.30;13.90;;;-4.70;99.90;;;;;;5042897;28;20037;-75
2022/12/15 04:10:52;;;;;;;21.50;13.50;;;-4.60;99.90;;;;;;5050029;28;20090;-75
2022/12/15 04:13:18;;;;;;;23.83;13.37;;;-4.60;99.90;;;;;;5049427;28;20493;-74
2022/12/15 04:15:43;;;;;;;24.70;14.00;;;-4.60;99.90;;;;;;5050350;28;20087;-75
2022/12/15 04:18:09;;;;;;;24.27;14.20;;;-4.70;99.90;;;;;;5039266;28;20044;-75
2022/12/15 04:20:36;;;;;;;21.77;13.57;;;-4.70;99.90;;;;;;5049641;28;20419;-75
2022/12/15 04:23:02;;;;;;;23.50;14.03;;;-4.60;99.90;;;;;;5046482;28;20071;-75
2022/12/15 05:31:57;;;;;;;23.70;13.40;;;-4.60;99.90;;;;;;5049989;28;20056;-74
2022/12/15 05:34:24;;;;;;;19.73;11.87;;;-4.60;99.90;;;;;;5052673;28;20045;-74
2022/12/15 05:36:51;;;;;;;20.10;12.07;;;-4.70;99.90;;;;;;5052290;28;20586;-74
2022/12/15 05:39:17;;;;;;;21.57;12.23;;;-4.70;99.90;;;;;;5053032;28;20041;-74
2022/12/15 05:41:42;;;;;;;20.00;11.50;;;-4.70;99.90;;;;;;5051168;28;20037;-74
2022/12/15 05:44:08;;;;;;;24.00;13.47;;;-4.70;99.90;;;;;;5051718;28;20048;-74
2022/12/15 05:46:34;;;;;;;25.60;13.07;;;-4.70;99.90;;;;;;5052302;28;20143;-74
2022/12/15 05:49:03;;;;;;;21.07;11.80;;;-4.70;99.90;;;;;;5053177;28;20037;-74
2022/12/15 05:51:29;;;;;;;20.87;12.07;;;-4.70;99.90;;;;;;5053669;28;20041;-74
2022/12/15 05:53:55;;;;;;;21.67;12.50;;;-4.70;99.90;;;;;;5053210;28;20032;-74
2022/12/15 05:56:20;;;;;;;19.63;12.37;;;-4.80;99.90;;;;;;5050248;28;20032;-74
2022/12/15 05:58:46;;;;;;;23.90;12.67;;;-4.80;99.90;;;;;;5050410;28;20444;-72
2022/12/15 06:01:15;;;;;;;26.60;11.87;;;-4.80;99.90;;;;;;5050179;28;20095;-72
2022/12/15 06:03:41;;;;;;;24.23;12.83;;;-4.70;99.90;;;;;;5051733;28;20689;-73
2022/12/15 06:06:08;;;;;;;21.80;12.07;;;-4.70;99.90;;;;;;5052341;28;20045;-72
2022/12/15 06:08:36;;;;;;;26.57;13.00;;;-4.70;99.90;;;;;;5052137;28;20045;-72
2022/12/15 06:11:02;;;;;;;24.43;13.13;;;-4.70;99.90;;;;;;5053805;28;20037;-72
2022/12/15 06:13:33;;;;;;;25.17;12.80;;;-4.60;99.90;;;;;;5051905;28;20510;-73
2022/12/15 06:16:00;;;;;;;;;;;-4.60;99.90;;;;;;5051631;28;20069;-73
2022/12/15 06:18:31;;;;;;;25.17;13.17;;;-4.50;99.90;;;;;;5052784;28;19917;-72
2022/12/15 06:20:58;;;;;;;20.33;11.82;;;-4.50;99.90;;;;;;5052080;28;20032;-72
2022/12/15 06:23:25;;;;;;;23.47;12.13;;;-4.50;99.90;;;;;;5050968;28;20065;-72
2022/12/15 06:25:50;;;;;;;22.67;12.00;;;-4.50;99.90;;;;;;5052346;28;20045;-72
2022/12/15 06:28:22;;;;;;;25.13;12.07;;;-4.50;99.90;;;;;;5051015;28;20047;-72
2022/12/15 06:30:52;;;;;;;21.40;12.40;;;-4.50;99.90;;;;;;5052353;28;20044;-72
2022/12/15 06:33:19;;;;;;;25.27;12.17;;;-4.40;99.90;;;;;;5050782;28;20044;-72
2022/12/15 06:35:44;;;;;;;21.77;12.10;;;-4.50;99.90;;;;;;5051958;28;20029;-72
2022/12/15 06:38:10;;;;;;;21.00;12.00;;;-4.40;99.90;;;;;;5049860;28;20086;-72
2022/12/15 06:40:36;;;;;;;22.70;12.70;;;-4.40;99.90;;;;;;5049618;28;20086;-73
2022/12/15 06:43:01;;;;;;;23.47;12.80;;;-4.40;99.90;;;;;;5050294;28;20110;-73
2022/12/15 06:45:27;;;;;;;24.77;12.57;;;-4.40;99.90;;;;;;5052702;28;20047;-72
2022/12/15 06:47:52;;;;;;;24.20;12.53;;;-4.40;99.90;;;;;;5047363;28;20036;-72
2022/12/15 06:50:18;;;;;;;23.00;12.90;;;-4.40;99.90;;;;;;5047490;28;20076;-72
2022/12/15 06:52:44;;;;;;;22.23;12.50;;;-4.40;99.90;;;;;;5048134;28;20520;-72
2022/12/15 06:55:09;;;;;;;21.23;12.00;;;-4.40;99.90;;;;;;5052097;28;20033;-74
2022/12/15 06:57:36;;;;;;;23.00;12.27;;;-4.40;99.90;;;;;;5042440;28;20469;-74
2022/12/15 07:00:02;;;;;;;20.57;12.10;;;-4.40;99.90;;;;;;5043621;28;20036;-75
2022/12/15 07:02:28;;;;;;;25.97;12.47;;;-4.40;99.90;;;;;;5041417;28;20045;-75
2022/12/15 07:04:54;;;;;;;23.03;13.07;;;-4.40;99.90;;;;;;5046703;28;20391;-75
2022/12/15 07:07:20;;;;;;;21.40;13.00;;;-4.40;99.90;;;;;;5049335;28;20051;-75
2022/12/15 07:09:45;;;;;;;24.80;13.43;;;-4.40;99.90;;;;;;5047704;22;20045;-64
2022/12/15 07:12:11;;;;;;;22.63;12.20;;;-4.30;99.90;;;;;;5034286;28;20550;-63
2022/12/15 07:14:37;;;;;;;26.77;15.37;;;-4.30;99.90;;;;;;5030995;28;20040;-63
2022/12/15 07:17:03;;;;;;;20.97;12.63;;;-4.30;99.90;;;;;;5027721;28;20414;-65
2022/12/15 07:19:28;;;;;;;25.40;13.87;;;-4.30;99.90;;;;;;5026514;28;20080;-64
2022/12/15 07:21:56;;;;;;;19.63;12.63;;;-4.40;99.90;;;;;;5027055;28;20108;-65
2022/12/15 07:24:22;;;;;;;20.73;12.17;;;-4.40;99.90;;;;;;5031533;28;20499;-64
2022/12/15 07:26:48;;;;;;;19.37;12.10;;;-4.40;99.90;;;;;;5030886;28;20040;-64
2022/12/15 07:29:13;;;;;;;20.70;12.60;;;-4.40;99.90;;;;;;5030685;28;20103;-64
2022/12/15 07:31:39;;;;;;;17.40;11.17;;;-4.40;99.90;;;;;;5030250;28;20033;-64
2022/12/15 07:34:05;;;;;;;21.20;13.13;;;-4.40;99.90;;;;;;5029081;28;20451;-64
2022/12/15 07:36:30;;;;;;;18.83;11.33;;;-4.30;99.90;;;;;;5027460;28;20048;-65
2022/12/15 07:38:59;;;;;;;20.80;13.17;;;-4.30;99.90;;;;;;5027073;28;20025;-65
2022/12/15 07:41:26;;;;;;;25.50;13.97;;;-4.30;99.90;;;;;;5031608;28;20037;-65
2022/12/15 07:43:52;;;;;;;25.67;12.83;;;-4.20;99.90;;;;;;5032239;28;20045;-64
2022/12/15 07:46:18;;;;;;;25.40;14.17;;;-4.20;99.90;;;;;;5026800;28;20766;-64
2022/12/15 07:48:44;;;;;;;28.67;16.00;;;-4.20;99.90;;;;;;5029664;28;20037;-64
2022/12/15 07:51:10;;;;;;;25.73;14.27;;;-4.10;99.90;;;;;;5028016;28;20073;-65
2022/12/15 07:53:36;;;;;;;26.40;14.00;;;-4.00;99.90;;;;;;5031913;28;20076;-64
2022/12/15 07:56:04;;;;;;;26.17;14.03;;;-3.90;99.90;;;;;;5029577;28;20037;-65
2022/12/15 07:58:30;;;;;;;26.20;13.90;;;-3.90;99.90;;;;;;5028698;28;20108;-65
2022/12/15 08:01:05;;;;;;;27.80;14.97;;;-3.80;99.90;;;;;;5025959;28;20121;-65
2022/12/15 08:03:30;;;;;;;28.27;14.60;;;-3.80;99.90;;;;;;5029737;28;20064;-64
2022/12/15 08:05:56;;;;;;;26.67;14.50;;;-3.70;99.90;;;;;;5030903;28;20033;-64
2022/12/15 08:08:21;;;;;;;24.07;13.90;;;-3.70;99.90;;;;;;5029719;28;20491;-64
2022/12/15 08:10:47;;;;;;;24.97;14.27;;;-3.60;99.90;;;;;;5027488;28;20048;-64
2022/12/15 08:13:13;;;;;;;24.33;13.73;;;-3.60;99.90;;;;;;5027521;28;20026;-65
2022/12/15 08:15:40;;;;;;;25.10;14.10;;;-3.60;99.90;;;;;;5029340;28;20037;-65
2022/12/15 08:18:07;;;;;;;30.33;14.30;;;-3.50;99.90;;;;;;5028886;28;20037;-65
2022/12/15 08:20:35;;;;;;;29.83;14.57;;;-3.50;99.90;;;;;;5025053;28;20048;-64
2022/12/15 08:23:00;;;;;;;23.33;14.77;;;-3.50;99.90;;;;;;5028029;28;20057;-65
2022/12/15 08:25:27;;;;;;;31.47;15.53;;;-3.50;99.90;;;;;;5023444;28;20057;-64
2022/12/15 08:27:54;;;;;;;27.13;14.43;;;-3.40;99.90;;;;;;5029440;28;20053;-65
2022/12/15 08:30:20;;;;;;;27.00;15.30;;;-3.40;99.90;;;;;;5028282;28;20045;-65
2022/12/15 08:32:46;;;;;;;27.53;15.53;;;-3.40;99.90;;;;;;5030059;28;20401;-64
2022/12/15 08:35:12;;;;;;;25.20;14.07;;;-3.30;99.90;;;;;;5029656;28;20049;-65
2022/12/15 08:37:38;;;;;;;25.00;14.73;;;-3.30;99.90;;;;;;5029543;28;20360;-65
2022/12/15 08:40:05;;;;;;;24.03;14.73;;;-3.30;99.90;;;;;;5030438;28;20044;-65
2022/12/15 08:42:34;;;;;;;25.93;15.67;;;-3.30;99.90;;;;;;5026811;28;20029;-65
2022/12/15 08:45:00;;;;;;;29.67;15.63;;;-3.30;99.90;;;;;;5031078;28;20044;-65
2022/12/15 08:47:26;;;;;;;28.97;15.97;;;-3.30;99.90;;;;;;5026505;28;20030;-65
2022/12/15 08:49:53;;;;;;;28.50;15.03;;;-3.30;99.90;;;;;;5021506;28;20392;-65
2022/12/15 08:52:19;;;;;;;30.63;15.47;;;-3.30;99.90;;;;;;5028646;28;20083;-65
2022/12/15 08:54:45;;;;;;;26.83;15.13;;;-3.30;99.90;;;;;;5029854;28;20030;-65
2022/12/15 08:57:10;;;;;;;32.57;15.30;;;-3.20;99.90;;;;;;5028856;28;20045;-65
2022/12/15 08:59:36;;;;;;;26.70;15.30;;;-3.10;99.90;;;;;;5027159;28;20045;-64
2022/12/15 09:02:02;;;;;;;28.70;14.97;;;-3.10;99.90;;;;;;5028504;28;20034;-65
2022/12/15 09:04:27;;;;;;;25.13;15.10;;;-3.00;99.90;;;;;;5032559;28;20045;-65
2022/12/15 09:06:53;;;;;;;27.17;15.40;;;-2.90;99.90;;;;;;5033681;28;20033;-65
2022/12/15 09:09:19;;;;;;;29.10;15.57;;;-2.80;99.90;;;;;;5029695;28;20163;-65
2022/12/15 09:11:44;;;;;;;29.17;14.80;;;-2.80;99.90;;;;;;5031492;28;20337;-65
2022/12/15 09:14:10;;;;;;;26.30;15.07;;;-2.70;99.90;;;;;;5032885;28;20041;-65
2022/12/15 09:16:35;;;;;;;23.77;12.80;;;-2.60;99.90;;;;;;5028788;28;20037;-65
2022/12/15 09:19:01;;;;;;;26.13;15.47;;;-2.60;99.90;;;;;;5030425;28;20045;-64
2022/12/15 09:21:29;;;;;;;24.70;14.37;;;-2.50;99.90;;;;;;5031309;28;20527;-65
2022/12/15 09:23:59;;;;;;;26.57;14.00;;;-2.50;99.90;;;;;;5028940;28;20068;-64
2022/12/15 09:26:25;;;;;;;26.73;14.97;;;-2.40;99.90;;;;;;5031638;28;20045;-64
2022/12/15 09:28:55;;;;;;;24.60;14.27;;;-2.30;99.90;;;;;;5032459;28;20518;-65
2022/12/15 09:31:24;;;;;;;26.77;15.60;;;-2.20;99.90;;;;;;5032983;28;20042;-64
2022/12/15 09:33:51;;;;;;;25.20;14.80;;;-2.20;99.90;;;;;;5026070;28;20339;-64
2022/12/15 09:36:18;;;;;;;25.57;14.97;;;-2.10;99.90;;;;;;5031148;28;20499;-64
2022/12/15 09:38:44;;;;;;;26.50;15.10;;;-2.00;99.90;;;;;;5033824;28;20045;-64
2022/12/15 09:41:12;;;;;;;28.13;14.60;;;-1.90;99.90;;;;;;5034745;28;20041;-65
2022/12/15 09:44:04;;;;;;;24.97;14.37;;;-1.90;99.90;;;;;;5028695;28;20050;-65
2022/12/15 09:46:49;;;;;;;24.83;14.10;;;-1.80;99.90;;;;;;5023439;28;20052;-64
2022/12/15 09:49:33;;;;;;;23.13;13.63;;;-1.70;99.90;;;;;;5034291;28;20041;-65
2022/12/15 09:52:29;;;;;;;25.53;15.63;;;-1.70;99.90;;;;;;5028691;28;20074;-64
2022/12/15 09:54:57;;;;;;;25.17;14.27;;;-1.60;99.90;;;;;;5029165;28;20084;-65
2022/12/15 09:58:02;;;;;;;28.03;15.13;;;-1.50;99.90;;;;;;5027216;28;20045;-65
2022/12/15 10:00:54;;;;;;;27.03;14.60;;;-1.40;99.90;;;;;;5027639;28;20506;-65
2022/12/15 10:04:00;;;;;;;22.53;13.30;;;-1.40;99.90;;;;;;5025660;28;20037;-65
2022/12/15 10:06:32;;;;;;;24.53;13.37;;;-1.30;99.90;;;;;;5029775;28;20045;-64
2022/12/15 10:09:06;;;;;;;27.77;14.27;;;-1.20;99.90;;;;;;5029653;28;20550;-65
2022/12/15 10:12:04;;;;;;;27.77;14.40;;;-1.20;99.90;;;;;;5033310;28;20048;-64
2022/12/15 10:15:03;;;;;;;27.27;14.30;;;-1.20;99.90;;;;;;5027415;28;20049;-64
2022/12/15 10:17:50;;;;;;;24.87;14.20;;;-1.20;99.90;;;;;;5015010;28;20054;-65
2022/12/15 10:20:23;;;;;;;22.07;12.53;;;-1.20;99.90;;;;;;5026993;28;20103;-65
2022/12/15 10:22:50;;;;;;;23.97;14.03;;;-1.20;99.90;;;;;;5011590;28;20111;-65
2022/12/15 10:25:25;;;;;;;25.80;14.80;;;-1.30;99.90;;;;;;5026253;28;20225;-64
2022/12/15 10:27:59;;;;;;;26.07;14.00;;;-1.30;99.90;;;;;;5028746;28;20037;-64
2022/12/15 10:30:24;;;;;;;23.73;14.30;;;-1.30;99.90;;;;;;5033027;28;20079;-65
2022/12/15 10:33:07;;;;;;;22.00;12.70;;;-1.30;99.90;;;;;;5029917;28;20072;-65
2022/12/15 10:35:35;;;;;;;26.70;14.73;;;-1.20;99.90;;;;;;5031377;28;20452;-64
2022/12/15 10:38:04;;;;;;;24.03;13.97;;;-1.20;99.90;;;;;;5030661;28;20029;-65
2022/12/15 10:40:53;;;;;;;26.80;13.93;;;-1.20;99.90;;;;;;5026555;28;20034;-65
2022/12/15 10:43:34;;;;;;;23.97;13.17;;;-1.20;99.90;;;;;;5031523;28;20516;-65
2022/12/15 10:46:17;;;;;;;27.07;14.77;;;-1.20;99.90;;;;;;5031503;28;20116;-64
2022/12/15 10:48:48;;;;;;;19.43;12.13;;;-1.20;99.90;;;;;;5031582;28;20120;-65
2022/12/15 10:51:28;;;;;;;19.17;11.52;;;-1.10;99.90;;;;;;5031581;28;20041;-64
2022/12/15 10:54:09;;;;;;;32.72;14.10;;;-0.90;99.90;;;;;;5030895;28;20142;-64
2022/12/15 10:56:51;;;;;;;24.38;14.23;;;-0.80;99.90;;;;;;5011735;28;20041;-65
2022/12/15 10:59:34;;;;;;;25.00;13.13;;;-0.70;99.90;;;;;;5030997;28;20638;-65
2022/12/15 11:02:22;;;;;;;27.35;12.98;;;-0.60;99.90;;;;;;5030180;28;20025;-64
2022/12/15 11:04:56;;;;;;;24.43;13.90;;;-0.50;99.90;;;;;;5023123;28;20081;-64
2022/12/15 11:07:24;;;;;;;24.93;14.87;;;-0.40;99.90;;;;;;5029233;28;20091;-65
2022/12/15 11:10:00;;;;;;;23.00;14.43;;;-0.40;99.90;;;;;;5006881;28;20041;-65
2022/12/15 11:15:22;;;;;;;21.17;13.73;;;-0.30;99.90;;;;;;5025680;28;20057;-64
2022/12/15 11:18:12;;;;;;;23.27;11.60;;;-0.20;99.90;;;;;;5024010;28;20517;-64
2022/12/15 11:20:43;;;;;;;22.30;13.07;;;-0.20;99.90;;;;;;5031390;28;20073;-64
2022/12/15 11:23:22;;;;;;;23.25;13.73;;;-0.20;99.90;;;;;;5032617;28;20208;-65
2022/12/15 11:25:59;;;;;;;23.70;14.25;;;-0.20;99.90;;;;;;5029717;28;20136;-64
2022/12/15 11:28:33;;;;;;;24.88;13.07;;;-0.20;99.90;;;;;;5019210;28;20562;-65
2022/12/15 11:31:21;;;;;;;23.30;14.30;;;-0.10;99.90;;;;;;5031048;28;20041;-65
2022/12/15 11:33:47;;;;;;;24.20;13.30;;;0.00;99.90;;;;;;5014924;28;20487;-64
2022/12/15 11:36:24;;;;;;;25.25;14.18;;;0.00;99.90;;;;;;5030628;28;20087;-64
2022/12/15 11:38:59;;;;;;;24.38;13.70;;;0.00;99.90;;;;;;5031209;28;20069;-64
2022/12/15 11:41:49;;;;;;;29.45;14.90;;;0.10;99.90;;;;;;5028694;28;20049;-64
2022/12/15 11:44:47;;;;;;;30.33;14.95;;;0.30;99.90;;;;;;5025684;28;20519;-64
2022/12/15 11:47:34;;;;;;;22.90;12.98;;;0.30;99.90;;;;;;5022954;28;20055;-64
2022/12/15 11:50:40;;;;;;;23.75;14.20;;;0.40;99.90;;;;;;5031605;28;20049;-64
2022/12/15 11:53:11;;;;;;;25.67;14.77;;;0.50;99.90;;;;;;5024629;28;20040;-64
2022/12/15 11:55:44;;;;;;;;;;;0.50;99.90;;;;;;5031253;28;20041;-64
2022/12/15 11:58:42;;;;;;;25.77;13.75;;;0.60;99.90;;;;;;5031216;28;19917;-64
2022/12/15 12:01:32;;;;;;;24.90;14.50;;;0.60;99.90;;;;;;5027120;28;20081;-64
2022/12/15 12:04:20;;;;;;;20.70;13.70;;;0.60;99.90;;;;;;5026597;28;20103;-64
2022/12/15 12:07:07;;;;;;;22.75;14.10;;;0.60;99.90;;;;;;5027171;28;20041;-64
2022/12/15 12:09:52;;;;;;;19.40;11.40;;;0.60;99.90;;;;;;5032140;28;20075;-64
2022/12/15 12:12:29;;;;;;;25.40;14.93;;;0.60;99.90;;;;;;5032165;28;20056;-64
2022/12/15 12:14:54;;;;;;;22.98;13.85;;;0.60;99.90;;;;;;5031549;28;20103;-64
2022/12/15 12:17:53;;;;;;;24.58;15.50;;;0.60;99.90;;;;;;5022875;28;20559;-64
2022/12/15 12:20:38;;;;;;;27.25;15.10;;;0.70;99.90;;;;;;5021724;28;20491;-64
2022/12/15 12:23:33;;;;;;;24.98;14.93;;;0.80;99.90;;;;;;4994072;28;20099;-64
2022/12/15 12:26:27;;;;;;;26.90;14.55;;;0.80;99.90;;;;;;5014182;28;20124;-64
2022/12/15 12:28:58;;;;;;;24.88;14.68;;;0.80;99.90;;;;;;5026335;28;20049;-64
2022/12/15 12:31:45;;;;;;;28.07;16.70;;;0.70;99.90;;;;;;5029588;28;20068;-65
2022/12/15 12:34:21;;;;;;;29.73;15.65;;;0.80;99.90;;;;;;5022831;28;20084;-64
2022/12/15 12:36:48;;;;;;;21.02;13.40;;;0.80;99.90;;;;;;5018378;28;20037;-64
2022/12/15 12:39:20;;;;;;;24.45;14.88;;;0.90;99.90;;;;;;5019474;28;20033;-64
2022/12/15 12:41:49;;;;;;;;;;;0.90;99.90;;;;;;5019727;28;20483;-64
2022/12/15 12:44:28;;;;;;;24.00;14.82;;;0.80;99.90;;;;;;5017781;28;19971;-64
2022/12/15 12:46:56;;;;;;;26.90;15.45;;;0.90;99.90;;;;;;5018082;28;20112;-64
2022/12/15 12:49:31;;;;;;;27.15;16.25;;;1.00;99.90;;;;;;5023175;28;20073;-64
2022/12/15 12:51:59;;;;;;;24.95;15.73;;;1.20;99.90;;;;;;5018328;28;20622;-64
2022/12/15 12:54:34;;;;;;;25.15;16.73;;;1.30;99.90;;;;;;5004193;28;20095;-64
2022/12/15 12:57:20;;;;;;;27.88;15.32;;;1.40;99.90;;;;;;5021335;28;20045;-64
2022/12/15 13:00:07;;;;;;;21.73;11.75;;;1.60;99.90;;;;;;5024455;28;20033;-64
2022/12/15 13:02:39;;;;;;;26.40;15.68;;;1.70;99.90;;;;;;5021657;28;20046;-64
2022/12/15 13:05:23;;;;;;;27.60;16.23;;;1.70;99.90;;;;;;5021940;28;20069;-64
2022/12/15 13:08:09;;;;;;;28.25;16.65;;;1.90;99.90;;;;;;5020321;28;20399;-64
2022/12/15 13:10:47;;;;;;;32.42;16.92;;;1.90;99.90;;;;;;5018101;28;20046;-69
2022/12/15 13:13:31;;;;;;;27.38;16.05;;;1.90;99.90;;;;;;5020054;28;20030;-69
2022/12/15 13:16:23;;;;;;;32.60;16.67;;;1.70;99.90;;;;;;5025813;28;20041;-69
2022/12/15 13:18:56;;;;;;;25.67;14.55;;;1.80;99.90;;;;;;5021550;28;20045;-69
2022/12/15 13:21:43;;;;;;;30.63;18.25;;;1.80;99.90;;;;;;5007468;28;20041;-69
2022/12/15 13:24:30;;;;;;;28.63;17.85;;;1.80;99.90;;;;;;5008920;28;20046;-69
2022/12/15 13:27:08;;;;;;;26.05;16.67;;;1.80;99.90;;;;;;5010814;28;20033;-69
2022/12/15 13:29:35;;;;;;;29.58;17.00;;;1.80;99.90;;;;;;5010607;28;20046;-69
2022/12/15 13:32:02;;;;;;;27.80;17.48;;;1.80;99.90;;;;;;5009992;28;20472;-69
2022/12/15 13:34:37;;;;;;;31.30;16.90;;;1.80;99.90;;;;;;5009629;28;20483;-69
2022/12/15 13:37:25;;;;;;;31.27;19.10;;;1.70;99.90;;;;;;5011524;28;20096;-69
2022/12/15 13:39:54;;;;;;;29.45;17.70;;;1.60;99.90;;;;;;5011078;28;20049;-67
2022/12/15 13:42:26;;;;;;;28.95;17.88;;;1.50;99.90;;;;;;5008641;28;20080;-68
2022/12/15 13:45:04;;;;;;;32.22;19.10;;;1.40;99.90;;;;;;5009687;28;20050;-69
2022/12/15 13:47:30;;;;;;;31.00;17.80;;;1.30;99.90;;;;;;5011210;28;20058;-69
2022/12/15 13:50:16;;;;;;;32.67;17.65;;;1.30;99.90;;;;;;5012798;28;20045;-68
2022/12/15 13:52:51;;;;;;;30.13;17.63;;;1.30;99.90;;;;;;5012962;28;20564;-68
2022/12/15 13:55:30;;;;;;;31.30;17.73;;;1.20;99.90;;;;;;5012189;28;20103;-68
2022/12/15 13:58:14;;;;;;;31.67;18.45;;;1.20;99.90;;;;;;5014478;28;20297;-68
2022/12/15 14:00:52;;;;;;;29.45;18.02;;;1.10;99.90;;;;;;4997078;28;20050;-69
2022/12/15 14:03:17;;;;;;;28.75;17.33;;;1.10;99.90;;;;;;5014560;28;20104;-68
2022/12/15 14:05:52;;;;;;;30.52;18.60;;;1.10;99.90;;;;;;5013641;28;20038;-68
2022/12/15 14:08:20;;;;;;;33.60;18.80;;;1.10;99.90;;;;;;5013642;28;20073;-68
2022/12/15 14:10:54;;;;;;;29.42;17.48;;;1.00;99.90;;;;;;5005374;28;20608;-68
2022/12/15 14:13:32;;;;;;;30.85;18.85;;;1.00;99.90;;;;;;5012079;28;20044;-69
2022/12/15 14:15:59;;;;;;;33.45;19.45;;;1.00;99.90;;;;;;5012110;28;20052;-68
2022/12/15 14:18:30;;;;;;;33.90;18.83;;;1.00;99.90;;;;;;5013911;28;20092;-68
2022/12/15 14:20:58;;;;;;;32.92;19.20;;;0.90;99.90;;;;;;5012282;28;20034;-68
2022/12/15 14:23:29;;;;;;;31.63;19.33;;;0.90;99.90;;;;;;5009954;28;20073;-68
2022/12/15 14:25:56;;;;;;;31.33;19.45;;;0.90;99.90;;;;;;5012734;28;20566;-68
2022/12/15 14:28:29;;;;;;;32.58;21.02;;;0.80;99.90;;;;;;5012978;28;20048;-68
2022/12/15 14:30:58;;;;;;;34.08;19.85;;;0.80;99.90;;;;;;5013623;28;20061;-68
2022/12/15 14:33:24;;;;;;;35.83;20.83;;;0.80;99.90;;;;;;5012218;28;20041;-68
2022/12/15 14:35:54;;;;;;;33.30;20.23;;;0.80;99.90;;;;;;5013481;28;20487;-68
2022/12/15 14:38:52;;;;;;;37.00;19.95;;;0.70;99.90;;;;;;5010105;28;20034;-68
2022/12/15 14:41:26;;;;;;;29.98;17.83;;;0.70;99.90;;;;;;5010792;28;20073;-68
2022/12/15 14:43:56;;;;;;;35.20;20.40;;;0.70;99.90;;;;;;5010986;28;20100;-68
2022/12/15 14:46:24;;;;;;;36.05;20.13;;;0.70;99.90;;;;;;5010876;28;20038;-68
2022/12/15 14:48:52;;;;;;;34.22;20.48;;;0.70;99.90;;;;;;5005218;28;20077;-68
2022/12/15 14:51:18;;;;;;;36.45;21.52;;;0.60;99.90;;;;;;5012685;28;20459;-68
2022/12/15 14:53:48;;;;;;;35.38;20.25;;;0.60;99.90;;;;;;5006450;28;20030;-68
2022/12/15 14:56:26;;;;;;;32.17;19.83;;;0.60;99.90;;;;;;5013261;28;20088;-68
2022/12/15 14:59:02;;;;;;;33.08;19.90;;;0.50;99.90;;;;;;5010452;28;20084;-68
2022/12/15 15:01:39;;;;;;;37.33;21.35;;;0.50;99.90;;;;;;5013387;28;20451;-68
2022/12/15 15:04:28;;;;;;;38.40;21.45;;;0.50;99.90;;;;;;5013213;28;20080;-68
2022/12/15 15:07:00;;;;;;;36.38;20.35;;;0.50;99.90;;;;;;5010739;28;20084;-68
2022/12/15 15:09:31;;;;;;;38.20;21.20;;;0.50;99.90;;;;;;5011531;28;20042;-68
2022/12/15 15:12:03;;;;;;;34.97;22.02;;;0.40;99.90;;;;;;5011475;28;20046;-68
2022/12/15 15:14:37;;;;;;;37.63;21.23;;;0.40;99.90;;;;;;5013365;28;20065;-68
2022/12/15 15:17:11;;;;;;;36.25;22.00;;;0.40;99.90;;;;;;5012334;28;20038;-68